sensor_id;sensor_type;location;lat;lon;timestamp;P1;durP1;ratioP1;P2;durP2;ratioP2
32152;SDS011;18656;50.580;11.392;2023-12-04T00:01:29;32.72;;;17.05;;
32152;SDS011;18656;50.580;11.392;2023-12-04T00:03:57;26.75;;;14.80;;
32152;SDS011;18656;50.580;11.392;2023-12-04T00:06:25;25.95;;;13.90;;
32152;SDS011;18656;50.580;11.392;2023-12-04T00:08:52;24.98;;;14.25;;
32152;SDS011;18656;50.580;11.392;2023-12-04T00:11:19;23.35;;;14.30;;
32152;SDS011;18656;50.580;11.392;2023-12-04T00:13:46;23.30;;;13.55;;
32152;SDS011;18656;50.580;11.392;2023-12-04T00:16:14;22.60;;;13.18;;
32152;SDS011;18656;50.580;11.392;2023-12-04T00:18:41;18.98;;;12.15;;
32152;SDS011;18656;50.580;11.392;2023-12-04T00:21:09;20.38;;;12.30;;
32152;SDS011;18656;50.580;11.392;2023-12-04T00:23:36;18.45;;;11.23;;
32152;SDS011;18656;50.580;11.392;2023-12-04T00:26:03;21.42;;;11.82;;
32152;SDS011;18656;50.580;11.392;2023-12-04T00:28:31;17.73;;;11.20;;
32152;SDS011;18656;50.580;11.392;2023-12-04T00:30:58;17.13;;;10.57;;
32152;SDS011;18656;50.580;11.392;2023-12-04T00:33:25;16.63;;;10.00;;
32152;SDS011;18656;50.580;11.392;2023-12-04T00:35:53;16.20;;;10.20;;
32152;SDS011;18656;50.580;11.392;2023-12-04T00:38:20;16.25;;;10.57;;
32152;SDS011;18656;50.580;11.392;2023-12-04T00:40:47;25.08;;;11.35;;
32152;SDS011;18656;50.580;11.392;2023-12-04T00:43:14;20.25;;;11.35;;
32152;SDS011;18656;50.580;11.392;2023-12-04T00:45:42;16.33;;;10.52;;
32152;SDS011;18656;50.580;11.392;2023-12-04T00:48:09;16.05;;;10.48;;
32152;SDS011;18656;50.580;11.392;2023-12-04T00:50:36;14.02;;;10.13;;
32152;SDS011;18656;50.580;11.392;2023-12-04T00:53:04;15.10;;;10.15;;
32152;SDS011;18656;50.580;11.392;2023-12-04T00:55:31;16.42;;;11.25;;
32152;SDS011;18656;50.580;11.392;2023-12-04T00:57:58;15.63;;;9.70;;
32152;SDS011;18656;50.580;11.392;2023-12-04T01:00:25;14.10;;;9.50;;
32152;SDS011;18656;50.580;11.392;2023-12-04T01:02:53;18.00;;;10.35;;
32152;SDS011;18656;50.580;11.392;2023-12-04T01:05:20;18.52;;;10.13;;
32152;SDS011;18656;50.580;11.392;2023-12-04T01:07:47;15.57;;;10.13;;
32152;SDS011;18656;50.580;11.392;2023-12-04T01:10:14;14.55;;;9.88;;
32152;SDS011;18656;50.580;11.392;2023-12-04T01:12:42;14.75;;;10.25;;
32152;SDS011;18656;50.580;11.392;2023-12-04T01:15:09;15.40;;;9.73;;
32152;SDS011;18656;50.580;11.392;2023-12-04T01:17:36;13.75;;;9.85;;
32152;SDS011;18656;50.580;11.392;2023-12-04T01:20:04;15.95;;;10.52;;
32152;SDS011;18656;50.580;11.392;2023-12-04T01:22:31;15.73;;;10.32;;
32152;SDS011;18656;50.580;11.392;2023-12-04T01:24:59;16.42;;;10.85;;
32152;SDS011;18656;50.580;11.392;2023-12-04T01:27:26;18.92;;;10.85;;
32152;SDS011;18656;50.580;11.392;2023-12-04T01:29:53;16.13;;;10.45;;
32152;SDS011;18656;50.580;11.392;2023-12-04T01:32:21;16.10;;;10.52;;
32152;SDS011;18656;50.580;11.392;2023-12-04T01:34:48;15.65;;;11.30;;
32152;SDS011;18656;50.580;11.392;2023-12-04T01:37:15;16.48;;;10.77;;
32152;SDS011;18656;50.580;11.392;2023-12-04T01:39:42;18.45;;;10.75;;
32152;SDS011;18656;50.580;11.392;2023-12-04T01:42:10;18.73;;;11.23;;
32152;SDS011;18656;50.580;11.392;2023-12-04T01:44:37;18.13;;;12.27;;
32152;SDS011;18656;50.580;11.392;2023-12-04T01:47:04;18.00;;;11.32;;
32152;SDS011;18656;50.580;11.392;2023-12-04T01:49:33;15.45;;;10.60;;
32152;SDS011;18656;50.580;11.392;2023-12-04T01:52:01;16.20;;;10.43;;
32152;SDS011;18656;50.580;11.392;2023-12-04T01:54:29;15.13;;;10.73;;
32152;SDS011;18656;50.580;11.392;2023-12-04T01:56:56;17.88;;;11.68;;
32152;SDS011;18656;50.580;11.392;2023-12-04T01:59:25;15.57;;;10.88;;
32152;SDS011;18656;50.580;11.392;2023-12-04T02:01:52;15.40;;;10.50;;
32152;SDS011;18656;50.580;11.392;2023-12-04T02:04:20;15.40;;;10.23;;
32152;SDS011;18656;50.580;11.392;2023-12-04T02:06:47;16.42;;;10.35;;
32152;SDS011;18656;50.580;11.392;2023-12-04T02:09:14;15.82;;;10.95;;
32152;SDS011;18656;50.580;11.392;2023-12-04T02:11:42;16.10;;;10.55;;
32152;SDS011;18656;50.580;11.392;2023-12-04T02:14:09;15.63;;;10.35;;
32152;SDS011;18656;50.580;11.392;2023-12-04T02:16:38;16.08;;;10.57;;
32152;SDS011;18656;50.580;11.392;2023-12-04T02:19:07;16.83;;;11.10;;
32152;SDS011;18656;50.580;11.392;2023-12-04T02:21:35;15.57;;;10.82;;
32152;SDS011;18656;50.580;11.392;2023-12-04T02:24:02;15.20;;;9.95;;
32152;SDS011;18656;50.580;11.392;2023-12-04T02:26:31;16.35;;;11.00;;
32152;SDS011;18656;50.580;11.392;2023-12-04T02:29:01;14.93;;;9.85;;
32152;SDS011;18656;50.580;11.392;2023-12-04T02:31:32;12.03;;;9.20;;
32152;SDS011;18656;50.580;11.392;2023-12-04T02:34:01;15.77;;;10.32;;
32152;SDS011;18656;50.580;11.392;2023-12-04T02:36:31;15.15;;;9.63;;
32152;SDS011;18656;50.580;11.392;2023-12-04T02:39:00;14.68;;;9.98;;
32152;SDS011;18656;50.580;11.392;2023-12-04T02:41:27;12.05;;;8.73;;
32152;SDS011;18656;50.580;11.392;2023-12-04T02:43:55;12.70;;;8.93;;
32152;SDS011;18656;50.580;11.392;2023-12-04T02:46:22;11.20;;;8.40;;
32152;SDS011;18656;50.580;11.392;2023-12-04T02:48:49;14.13;;;9.27;;
32152;SDS011;18656;50.580;11.392;2023-12-04T02:51:17;16.65;;;9.10;;
32152;SDS011;18656;50.580;11.392;2023-12-04T02:53:44;13.63;;;9.60;;
32152;SDS011;18656;50.580;11.392;2023-12-04T02:56:11;13.10;;;8.70;;
32152;SDS011;18656;50.580;11.392;2023-12-04T02:58:39;12.48;;;8.43;;
32152;SDS011;18656;50.580;11.392;2023-12-04T03:01:06;10.70;;;7.60;;
32152;SDS011;18656;50.580;11.392;2023-12-04T03:03:33;13.55;;;8.52;;
32152;SDS011;18656;50.580;11.392;2023-12-04T03:06:01;11.38;;;8.07;;
32152;SDS011;18656;50.580;11.392;2023-12-04T03:08:28;11.45;;;8.15;;
32152;SDS011;18656;50.580;11.392;2023-12-04T03:10:55;10.73;;;7.90;;
32152;SDS011;18656;50.580;11.392;2023-12-04T03:13:23;10.70;;;7.70;;
32152;SDS011;18656;50.580;11.392;2023-12-04T03:15:50;12.80;;;8.52;;
32152;SDS011;18656;50.580;11.392;2023-12-04T03:18:17;9.93;;;7.63;;
32152;SDS011;18656;50.580;11.392;2023-12-04T03:20:45;11.80;;;8.32;;
32152;SDS011;18656;50.580;11.392;2023-12-04T03:23:12;13.13;;;8.70;;
32152;SDS011;18656;50.580;11.392;2023-12-04T03:25:39;11.38;;;7.90;;
32152;SDS011;18656;50.580;11.392;2023-12-04T03:28:06;13.18;;;8.57;;
32152;SDS011;18656;50.580;11.392;2023-12-04T03:30:33;10.45;;;7.50;;
32152;SDS011;18656;50.580;11.392;2023-12-04T03:33:01;11.98;;;8.38;;
32152;SDS011;18656;50.580;11.392;2023-12-04T03:35:28;12.38;;;8.48;;
32152;SDS011;18656;50.580;11.392;2023-12-04T03:37:55;13.82;;;8.45;;
32152;SDS011;18656;50.580;11.392;2023-12-04T03:40:23;12.27;;;8.57;;
32152;SDS011;18656;50.580;11.392;2023-12-04T03:42:50;9.57;;;7.55;;
32152;SDS011;18656;50.580;11.392;2023-12-04T03:45:17;12.00;;;8.10;;
32152;SDS011;18656;50.580;11.392;2023-12-04T03:47:45;11.93;;;7.90;;
32152;SDS011;18656;50.580;11.392;2023-12-04T03:50:12;11.43;;;7.78;;
32152;SDS011;18656;50.580;11.392;2023-12-04T03:52:39;12.55;;;8.27;;
32152;SDS011;18656;50.580;11.392;2023-12-04T03:55:08;12.48;;;8.65;;
32152;SDS011;18656;50.580;11.392;2023-12-04T03:57:35;14.55;;;8.80;;
32152;SDS011;18656;50.580;11.392;2023-12-04T04:00:03;12.68;;;9.52;;
32152;SDS011;18656;50.580;11.392;2023-12-04T04:02:30;11.75;;;9.15;;
32152;SDS011;18656;50.580;11.392;2023-12-04T04:04:58;13.27;;;9.02;;
32152;SDS011;18656;50.580;11.392;2023-12-04T04:07:25;12.00;;;8.43;;
32152;SDS011;18656;50.580;11.392;2023-12-04T04:09:53;13.05;;;8.68;;
32152;SDS011;18656;50.580;11.392;2023-12-04T04:12:20;14.45;;;9.00;;
32152;SDS011;18656;50.580;11.392;2023-12-04T04:14:47;11.95;;;8.48;;
32152;SDS011;18656;50.580;11.392;2023-12-04T04:17:14;11.55;;;8.15;;
32152;SDS011;18656;50.580;11.392;2023-12-04T04:19:42;11.93;;;8.77;;
32152;SDS011;18656;50.580;11.392;2023-12-04T04:22:09;11.13;;;8.00;;
32152;SDS011;18656;50.580;11.392;2023-12-04T04:24:36;11.88;;;8.98;;
32152;SDS011;18656;50.580;11.392;2023-12-04T04:27:03;12.43;;;8.88;;
32152;SDS011;18656;50.580;11.392;2023-12-04T04:29:31;12.25;;;8.80;;
32152;SDS011;18656;50.580;11.392;2023-12-04T04:31:58;12.23;;;8.65;;
32152;SDS011;18656;50.580;11.392;2023-12-04T04:34:25;14.05;;;8.73;;
32152;SDS011;18656;50.580;11.392;2023-12-04T04:36:52;14.20;;;9.38;;
32152;SDS011;18656;50.580;11.392;2023-12-04T04:39:20;13.40;;;9.25;;
32152;SDS011;18656;50.580;11.392;2023-12-04T04:41:47;11.75;;;9.00;;
32152;SDS011;18656;50.580;11.392;2023-12-04T04:44:14;12.52;;;7.63;;
32152;SDS011;18656;50.580;11.392;2023-12-04T04:46:41;15.35;;;10.15;;
32152;SDS011;18656;50.580;11.392;2023-12-04T04:49:09;14.38;;;9.63;;
32152;SDS011;18656;50.580;11.392;2023-12-04T04:51:36;12.93;;;9.38;;
32152;SDS011;18656;50.580;11.392;2023-12-04T04:54:03;13.27;;;8.75;;
32152;SDS011;18656;50.580;11.392;2023-12-04T04:56:31;13.23;;;8.82;;
32152;SDS011;18656;50.580;11.392;2023-12-04T04:58:58;12.95;;;8.55;;
32152;SDS011;18656;50.580;11.392;2023-12-04T05:01:25;14.23;;;9.02;;
32152;SDS011;18656;50.580;11.392;2023-12-04T05:03:53;14.15;;;9.35;;
32152;SDS011;18656;50.580;11.392;2023-12-04T05:06:20;12.40;;;9.00;;
32152;SDS011;18656;50.580;11.392;2023-12-04T05:08:49;14.10;;;9.70;;
32152;SDS011;18656;50.580;11.392;2023-12-04T05:11:19;14.07;;;9.25;;
32152;SDS011;18656;50.580;11.392;2023-12-04T05:13:46;13.05;;;9.02;;
32152;SDS011;18656;50.580;11.392;2023-12-04T05:16:13;15.00;;;9.40;;
32152;SDS011;18656;50.580;11.392;2023-12-04T05:18:40;15.23;;;9.85;;
32152;SDS011;18656;50.580;11.392;2023-12-04T05:21:08;14.27;;;9.23;;
32152;SDS011;18656;50.580;11.392;2023-12-04T05:23:38;13.95;;;9.18;;
32152;SDS011;18656;50.580;11.392;2023-12-04T05:26:06;15.15;;;9.95;;
32152;SDS011;18656;50.580;11.392;2023-12-04T05:28:34;14.10;;;9.57;;
32152;SDS011;18656;50.580;11.392;2023-12-04T05:31:01;11.80;;;8.27;;
32152;SDS011;18656;50.580;11.392;2023-12-04T05:33:28;12.00;;;8.18;;
32152;SDS011;18656;50.580;11.392;2023-12-04T05:35:56;11.68;;;8.30;;
32152;SDS011;18656;50.580;11.392;2023-12-04T05:38:23;64.38;;;27.60;;
32152;SDS011;18656;50.580;11.392;2023-12-04T05:40:50;23.13;;;12.82;;
32152;SDS011;18656;50.580;11.392;2023-12-04T05:43:18;13.45;;;8.60;;
32152;SDS011;18656;50.580;11.392;2023-12-04T05:45:45;12.35;;;8.68;;
32152;SDS011;18656;50.580;11.392;2023-12-04T05:48:16;14.10;;;10.30;;
32152;SDS011;18656;50.580;11.392;2023-12-04T05:50:43;10.05;;;7.38;;
32152;SDS011;18656;50.580;11.392;2023-12-04T05:53:10;9.00;;;7.38;;
32152;SDS011;18656;50.580;11.392;2023-12-04T05:55:38;9.25;;;6.93;;
32152;SDS011;18656;50.580;11.392;2023-12-04T05:58:05;10.10;;;6.90;;
32152;SDS011;18656;50.580;11.392;2023-12-04T06:00:32;8.75;;;6.40;;
32152;SDS011;18656;50.580;11.392;2023-12-04T06:02:59;10.52;;;7.28;;
32152;SDS011;18656;50.580;11.392;2023-12-04T06:05:27;9.70;;;6.95;;
32152;SDS011;18656;50.580;11.392;2023-12-04T06:07:54;8.63;;;6.57;;
32152;SDS011;18656;50.580;11.392;2023-12-04T06:10:21;8.52;;;6.10;;
32152;SDS011;18656;50.580;11.392;2023-12-04T06:12:49;8.38;;;6.82;;
32152;SDS011;18656;50.580;11.392;2023-12-04T06:15:16;8.75;;;6.60;;
32152;SDS011;18656;50.580;11.392;2023-12-04T06:17:43;8.52;;;6.85;;
32152;SDS011;18656;50.580;11.392;2023-12-04T06:20:11;9.30;;;6.80;;
32152;SDS011;18656;50.580;11.392;2023-12-04T06:22:38;7.60;;;6.18;;
32152;SDS011;18656;50.580;11.392;2023-12-04T06:25:06;8.20;;;6.32;;
32152;SDS011;18656;50.580;11.392;2023-12-04T06:27:33;7.80;;;5.80;;
32152;SDS011;18656;50.580;11.392;2023-12-04T06:30:01;8.77;;;6.07;;
32152;SDS011;18656;50.580;11.392;2023-12-04T06:32:28;6.75;;;5.50;;
32152;SDS011;18656;50.580;11.392;2023-12-04T06:34:56;8.00;;;6.05;;
32152;SDS011;18656;50.580;11.392;2023-12-04T06:37:23;9.10;;;6.15;;
32152;SDS011;18656;50.580;11.392;2023-12-04T06:39:51;8.10;;;5.78;;
32152;SDS011;18656;50.580;11.392;2023-12-04T06:42:20;7.28;;;5.63;;
32152;SDS011;18656;50.580;11.392;2023-12-04T06:44:49;6.82;;;5.95;;
32152;SDS011;18656;50.580;11.392;2023-12-04T06:47:17;6.85;;;5.40;;
32152;SDS011;18656;50.580;11.392;2023-12-04T06:49:45;7.10;;;5.82;;
32152;SDS011;18656;50.580;11.392;2023-12-04T06:52:12;7.13;;;6.03;;
32152;SDS011;18656;50.580;11.392;2023-12-04T06:54:39;7.38;;;5.72;;
32152;SDS011;18656;50.580;11.392;2023-12-04T06:57:07;9.80;;;6.57;;
32152;SDS011;18656;50.580;11.392;2023-12-04T06:59:34;8.10;;;6.32;;
32152;SDS011;18656;50.580;11.392;2023-12-04T07:02:02;8.77;;;6.60;;
32152;SDS011;18656;50.580;11.392;2023-12-04T07:04:31;8.70;;;6.45;;
32152;SDS011;18656;50.580;11.392;2023-12-04T07:06:59;12.90;;;7.20;;
32152;SDS011;18656;50.580;11.392;2023-12-04T07:09:31;8.35;;;6.72;;
32152;SDS011;18656;50.580;11.392;2023-12-04T07:11:59;12.73;;;7.03;;
32152;SDS011;18656;50.580;11.392;2023-12-04T07:14:27;11.77;;;7.72;;
32152;SDS011;18656;50.580;11.392;2023-12-04T07:16:54;17.55;;;14.38;;
32152;SDS011;18656;50.580;11.392;2023-12-04T07:19:21;11.65;;;8.35;;
32152;SDS011;18656;50.580;11.392;2023-12-04T07:21:49;13.05;;;9.05;;
32152;SDS011;18656;50.580;11.392;2023-12-04T07:24:16;14.65;;;10.50;;
32152;SDS011;18656;50.580;11.392;2023-12-04T07:26:43;12.55;;;8.98;;
32152;SDS011;18656;50.580;11.392;2023-12-04T07:29:10;10.85;;;7.70;;
32152;SDS011;18656;50.580;11.392;2023-12-04T07:31:38;13.80;;;9.65;;
32152;SDS011;18656;50.580;11.392;2023-12-04T07:34:05;14.85;;;10.02;;
32152;SDS011;18656;50.580;11.392;2023-12-04T07:36:32;13.20;;;8.63;;
32152;SDS011;18656;50.580;11.392;2023-12-04T07:39:00;11.45;;;8.02;;
32152;SDS011;18656;50.580;11.392;2023-12-04T07:41:27;12.15;;;9.13;;
32152;SDS011;18656;50.580;11.392;2023-12-04T07:43:54;13.10;;;8.70;;
32152;SDS011;18656;50.580;11.392;2023-12-04T07:46:21;14.27;;;9.38;;
32152;SDS011;18656;50.580;11.392;2023-12-04T07:48:49;15.43;;;10.23;;
32152;SDS011;18656;50.580;11.392;2023-12-04T07:51:20;12.40;;;9.10;;
32152;SDS011;18656;50.580;11.392;2023-12-04T07:53:47;13.68;;;9.90;;
32152;SDS011;18656;50.580;11.392;2023-12-04T07:56:14;7.78;;;5.75;;
32152;SDS011;18656;50.580;11.392;2023-12-04T07:58:42;7.75;;;5.03;;
32152;SDS011;18656;50.580;11.392;2023-12-04T08:01:09;6.32;;;4.93;;
32152;SDS011;18656;50.580;11.392;2023-12-04T08:03:37;6.25;;;5.22;;
32152;SDS011;18656;50.580;11.392;2023-12-04T08:06:04;6.97;;;5.68;;
32152;SDS011;18656;50.580;11.392;2023-12-04T08:08:32;4.82;;;4.32;;
32152;SDS011;18656;50.580;11.392;2023-12-04T08:10:59;6.45;;;4.40;;
32152;SDS011;18656;50.580;11.392;2023-12-04T08:13:26;4.40;;;4.00;;
32152;SDS011;18656;50.580;11.392;2023-12-04T08:15:53;5.85;;;4.75;;
32152;SDS011;18656;50.580;11.392;2023-12-04T08:18:21;6.05;;;4.30;;
32152;SDS011;18656;50.580;11.392;2023-12-04T08:20:48;4.90;;;3.90;;
32152;SDS011;18656;50.580;11.392;2023-12-04T08:23:16;4.45;;;4.05;;
32152;SDS011;18656;50.580;11.392;2023-12-04T08:25:43;4.32;;;3.90;;
32152;SDS011;18656;50.580;11.392;2023-12-04T08:28:10;6.20;;;5.05;;
32152;SDS011;18656;50.580;11.392;2023-12-04T08:30:38;13.65;;;6.13;;
32152;SDS011;18656;50.580;11.392;2023-12-04T08:33:05;4.88;;;4.38;;
32152;SDS011;18656;50.580;11.392;2023-12-04T08:35:33;4.20;;;3.67;;
32152;SDS011;18656;50.580;11.392;2023-12-04T08:38:01;4.55;;;3.58;;
32152;SDS011;18656;50.580;11.392;2023-12-04T08:40:29;4.13;;;3.53;;
32152;SDS011;18656;50.580;11.392;2023-12-04T08:42:56;4.60;;;4.05;;
32152;SDS011;18656;50.580;11.392;2023-12-04T08:45:23;4.55;;;3.78;;
32152;SDS011;18656;50.580;11.392;2023-12-04T08:47:51;6.93;;;4.25;;
32152;SDS011;18656;50.580;11.392;2023-12-04T08:50:18;4.18;;;3.78;;
32152;SDS011;18656;50.580;11.392;2023-12-04T08:52:45;5.65;;;4.20;;
32152;SDS011;18656;50.580;11.392;2023-12-04T08:55:12;4.40;;;4.00;;
32152;SDS011;18656;50.580;11.392;2023-12-04T08:57:40;4.93;;;3.70;;
32152;SDS011;18656;50.580;11.392;2023-12-04T09:00:07;5.22;;;4.20;;
32152;SDS011;18656;50.580;11.392;2023-12-04T09:02:35;5.47;;;4.35;;
32152;SDS011;18656;50.580;11.392;2023-12-04T09:05:11;5.90;;;5.25;;
32152;SDS011;18656;50.580;11.392;2023-12-04T09:07:39;4.88;;;4.38;;
32152;SDS011;18656;50.580;11.392;2023-12-04T09:10:26;5.45;;;4.50;;
32152;SDS011;18656;50.580;11.392;2023-12-04T09:13:14;4.93;;;4.40;;
32152;SDS011;18656;50.580;11.392;2023-12-04T09:15:41;5.75;;;4.47;;
32152;SDS011;18656;50.580;11.392;2023-12-04T09:18:09;4.60;;;4.05;;
32152;SDS011;18656;50.580;11.392;2023-12-04T09:20:36;4.80;;;4.30;;
32152;SDS011;18656;50.580;11.392;2023-12-04T09:23:04;3.80;;;3.47;;
32152;SDS011;18656;50.580;11.392;2023-12-04T09:25:35;4.95;;;4.25;;
32152;SDS011;18656;50.580;11.392;2023-12-04T09:28:02;5.13;;;4.18;;
32152;SDS011;18656;50.580;11.392;2023-12-04T09:30:30;4.47;;;3.95;;
32152;SDS011;18656;50.580;11.392;2023-12-04T09:32:57;4.50;;;3.75;;
32152;SDS011;18656;50.580;11.392;2023-12-04T09:35:25;4.15;;;3.72;;
32152;SDS011;18656;50.580;11.392;2023-12-04T09:37:52;3.70;;;3.30;;
32152;SDS011;18656;50.580;11.392;2023-12-04T09:40:20;7.22;;;3.90;;
32152;SDS011;18656;50.580;11.392;2023-12-04T09:42:47;3.55;;;3.00;;
32152;SDS011;18656;50.580;11.392;2023-12-04T09:45:15;3.35;;;3.05;;
32152;SDS011;18656;50.580;11.392;2023-12-04T09:47:42;3.97;;;3.50;;
32152;SDS011;18656;50.580;11.392;2023-12-04T09:50:10;3.05;;;2.85;;
32152;SDS011;18656;50.580;11.392;2023-12-04T09:52:38;3.42;;;3.10;;
32152;SDS011;18656;50.580;11.392;2023-12-04T09:55:05;3.72;;;3.22;;
32152;SDS011;18656;50.580;11.392;2023-12-04T09:57:33;3.95;;;3.22;;
32152;SDS011;18656;50.580;11.392;2023-12-04T10:00:02;3.65;;;2.97;;
32152;SDS011;18656;50.580;11.392;2023-12-04T10:02:31;3.42;;;3.13;;
32152;SDS011;18656;50.580;11.392;2023-12-04T10:04:59;3.05;;;2.85;;
32152;SDS011;18656;50.580;11.392;2023-12-04T10:07:26;6.18;;;2.90;;
32152;SDS011;18656;50.580;11.392;2023-12-04T10:09:53;3.15;;;2.95;;
32152;SDS011;18656;50.580;11.392;2023-12-04T10:12:21;3.40;;;3.10;;
32152;SDS011;18656;50.580;11.392;2023-12-04T10:17:35;5.15;;;4.65;;
32152;SDS011;18656;50.580;11.392;2023-12-04T10:20:09;3.97;;;3.58;;
32152;SDS011;18656;50.580;11.392;2023-12-04T10:22:39;5.07;;;4.45;;
32152;SDS011;18656;50.580;11.392;2023-12-04T10:25:16;5.53;;;4.63;;
32152;SDS011;18656;50.580;11.392;2023-12-04T10:27:44;4.78;;;4.22;;
32152;SDS011;18656;50.580;11.392;2023-12-04T10:30:28;4.50;;;4.10;;
32152;SDS011;18656;50.580;11.392;2023-12-04T10:32:57;3.85;;;3.55;;
32152;SDS011;18656;50.580;11.392;2023-12-04T10:35:31;4.55;;;3.20;;
32152;SDS011;18656;50.580;11.392;2023-12-04T10:37:59;5.35;;;3.90;;
32152;SDS011;18656;50.580;11.392;2023-12-04T10:40:27;3.92;;;2.90;;
32152;SDS011;18656;50.580;11.392;2023-12-04T10:45:41;2.78;;;2.60;;
32152;SDS011;18656;50.580;11.392;2023-12-04T10:48:09;2.70;;;2.50;;
32152;SDS011;18656;50.580;11.392;2023-12-04T10:50:38;2.65;;;2.22;;
32152;SDS011;18656;50.580;11.392;2023-12-04T10:53:06;2.58;;;2.33;;
32152;SDS011;18656;50.580;11.392;2023-12-04T10:55:33;2.40;;;2.30;;
32152;SDS011;18656;50.580;11.392;2023-12-04T10:58:02;2.58;;;2.38;;
32152;SDS011;18656;50.580;11.392;2023-12-04T11:00:33;2.58;;;2.40;;
32152;SDS011;18656;50.580;11.392;2023-12-04T11:03:10;3.80;;;3.40;;
32152;SDS011;18656;50.580;11.392;2023-12-04T11:05:40;2.47;;;2.28;;
32152;SDS011;18656;50.580;11.392;2023-12-04T11:08:09;3.35;;;2.60;;
32152;SDS011;18656;50.580;11.392;2023-12-04T11:11:05;2.70;;;2.30;;
32152;SDS011;18656;50.580;11.392;2023-12-04T11:13:34;2.55;;;2.35;;
32152;SDS011;18656;50.580;11.392;2023-12-04T11:18:51;4.18;;;2.85;;
32152;SDS011;18656;50.580;11.392;2023-12-04T11:21:22;3.15;;;2.92;;
32152;SDS011;18656;50.580;11.392;2023-12-04T11:23:50;4.43;;;2.72;;
32152;SDS011;18656;50.580;11.392;2023-12-04T11:26:17;3.22;;;2.10;;
32152;SDS011;18656;50.580;11.392;2023-12-04T11:28:44;2.22;;;2.00;;
32152;SDS011;18656;50.580;11.392;2023-12-04T11:31:12;2.25;;;1.83;;
32152;SDS011;18656;50.580;11.392;2023-12-04T11:33:39;2.20;;;2.10;;
32152;SDS011;18656;50.580;11.392;2023-12-04T11:36:11;2.40;;;2.20;;
32152;SDS011;18656;50.580;11.392;2023-12-04T11:38:44;2.03;;;1.92;;
32152;SDS011;18656;50.580;11.392;2023-12-04T11:41:19;2.63;;;2.42;;
32152;SDS011;18656;50.580;11.392;2023-12-04T11:43:52;2.03;;;1.92;;
32152;SDS011;18656;50.580;11.392;2023-12-04T11:46:26;2.78;;;2.55;;
32152;SDS011;18656;50.580;11.392;2023-12-04T11:48:54;1.83;;;1.73;;
32152;SDS011;18656;50.580;11.392;2023-12-04T11:54:18;2.75;;;2.13;;
32152;SDS011;18656;50.580;11.392;2023-12-04T11:56:58;2.33;;;2.13;;
32152;SDS011;18656;50.580;11.392;2023-12-04T11:59:26;2.00;;;1.90;;
32152;SDS011;18656;50.580;11.392;2023-12-04T12:01:54;1.90;;;1.77;;
32152;SDS011;18656;50.580;11.392;2023-12-04T12:04:23;2.08;;;1.98;;
32152;SDS011;18656;50.580;11.392;2023-12-04T12:06:55;2.47;;;2.33;;
32152;SDS011;18656;50.580;11.392;2023-12-04T12:09:23;2.60;;;2.40;;
32152;SDS011;18656;50.580;11.392;2023-12-04T12:11:50;2.40;;;2.20;;
32152;SDS011;18656;50.580;11.392;2023-12-04T12:14:20;2.33;;;2.22;;
32152;SDS011;18656;50.580;11.392;2023-12-04T12:16:47;4.68;;;2.40;;
32152;SDS011;18656;50.580;11.392;2023-12-04T12:19:15;2.38;;;2.17;;
32152;SDS011;18656;50.580;11.392;2023-12-04T12:21:43;2.80;;;2.60;;
32152;SDS011;18656;50.580;11.392;2023-12-04T12:24:11;2.40;;;2.30;;
32152;SDS011;18656;50.580;11.392;2023-12-04T12:26:39;2.90;;;2.70;;
32152;SDS011;18656;50.580;11.392;2023-12-04T12:29:08;2.95;;;2.53;;
32152;SDS011;18656;50.580;11.392;2023-12-04T12:31:35;2.70;;;2.50;;
32152;SDS011;18656;50.580;11.392;2023-12-04T12:34:03;3.80;;;2.80;;
32152;SDS011;18656;50.580;11.392;2023-12-04T12:36:31;2.90;;;2.70;;
32152;SDS011;18656;50.580;11.392;2023-12-04T12:38:59;4.10;;;2.92;;
32152;SDS011;18656;50.580;11.392;2023-12-04T12:41:30;3.55;;;3.25;;
32152;SDS011;18656;50.580;11.392;2023-12-04T12:43:58;4.00;;;3.60;;
32152;SDS011;18656;50.580;11.392;2023-12-04T12:46:27;3.60;;;3.15;;
32152;SDS011;18656;50.580;11.392;2023-12-04T12:48:55;3.60;;;3.30;;
32152;SDS011;18656;50.580;11.392;2023-12-04T12:51:25;5.40;;;3.22;;
32152;SDS011;18656;50.580;11.392;2023-12-04T12:53:53;3.47;;;3.17;;
32152;SDS011;18656;50.580;11.392;2023-12-04T12:56:20;3.30;;;3.00;;
32152;SDS011;18656;50.580;11.392;2023-12-04T12:58:48;3.72;;;3.42;;
32152;SDS011;18656;50.580;11.392;2023-12-04T13:01:19;7.55;;;3.47;;
32152;SDS011;18656;50.580;11.392;2023-12-04T13:03:51;6.60;;;3.40;;
32152;SDS011;18656;50.580;11.392;2023-12-04T13:06:19;4.80;;;3.75;;
32152;SDS011;18656;50.580;11.392;2023-12-04T13:08:46;3.92;;;3.53;;
32152;SDS011;18656;50.580;11.392;2023-12-04T13:11:17;3.08;;;2.78;;
32152;SDS011;18656;50.580;11.392;2023-12-04T13:13:45;3.80;;;3.15;;
32152;SDS011;18656;50.580;11.392;2023-12-04T13:16:12;3.03;;;2.83;;
32152;SDS011;18656;50.580;11.392;2023-12-04T13:18:39;3.67;;;3.38;;
32152;SDS011;18656;50.580;11.392;2023-12-04T13:21:07;3.95;;;3.05;;
32152;SDS011;18656;50.580;11.392;2023-12-04T13:23:36;6.88;;;4.10;;
32152;SDS011;18656;50.580;11.392;2023-12-04T13:26:04;4.88;;;3.38;;
32152;SDS011;18656;50.580;11.392;2023-12-04T13:28:31;3.75;;;3.40;;
32152;SDS011;18656;50.580;11.392;2023-12-04T13:31:09;3.33;;;3.08;;
32152;SDS011;18656;50.580;11.392;2023-12-04T13:33:37;3.63;;;3.20;;
32152;SDS011;18656;50.580;11.392;2023-12-04T13:36:04;3.40;;;3.10;;
32152;SDS011;18656;50.580;11.392;2023-12-04T13:38:32;3.72;;;3.40;;
32152;SDS011;18656;50.580;11.392;2023-12-04T13:41:03;4.78;;;3.42;;
32152;SDS011;18656;50.580;11.392;2023-12-04T13:43:49;3.80;;;3.38;;
32152;SDS011;18656;50.580;11.392;2023-12-04T13:46:17;4.05;;;3.65;;
32152;SDS011;18656;50.580;11.392;2023-12-04T13:48:44;6.18;;;4.53;;
32152;SDS011;18656;50.580;11.392;2023-12-04T13:51:12;5.20;;;4.50;;
32152;SDS011;18656;50.580;11.392;2023-12-04T13:53:40;6.60;;;4.63;;
32152;SDS011;18656;50.580;11.392;2023-12-04T13:56:11;4.45;;;4.03;;
32152;SDS011;18656;50.580;11.392;2023-12-04T13:58:57;3.65;;;3.30;;
32152;SDS011;18656;50.580;11.392;2023-12-04T14:01:28;5.40;;;4.25;;
32152;SDS011;18656;50.580;11.392;2023-12-04T14:03:56;5.65;;;4.60;;
32152;SDS011;18656;50.580;11.392;2023-12-04T14:06:30;4.85;;;4.13;;
32152;SDS011;18656;50.580;11.392;2023-12-04T14:08:59;4.90;;;4.00;;
32152;SDS011;18656;50.580;11.392;2023-12-04T14:11:27;4.15;;;3.75;;
32152;SDS011;18656;50.580;11.392;2023-12-04T14:13:54;6.25;;;4.30;;
32152;SDS011;18656;50.580;11.392;2023-12-04T14:16:22;5.25;;;4.10;;
32152;SDS011;18656;50.580;11.392;2023-12-04T14:18:49;10.43;;;4.97;;
32152;SDS011;18656;50.580;11.392;2023-12-04T14:21:16;9.82;;;5.22;;
32152;SDS011;18656;50.580;11.392;2023-12-04T14:23:43;9.45;;;7.63;;
32152;SDS011;18656;50.580;11.392;2023-12-04T14:26:11;8.93;;;6.40;;
32152;SDS011;18656;50.580;11.392;2023-12-04T14:28:38;7.50;;;6.68;;
32152;SDS011;18656;50.580;11.392;2023-12-04T14:31:08;7.10;;;5.75;;
32152;SDS011;18656;50.580;11.392;2023-12-04T14:33:36;18.50;;;11.60;;
32152;SDS011;18656;50.580;11.392;2023-12-04T14:36:08;13.85;;;10.32;;
32152;SDS011;18656;50.580;11.392;2023-12-04T14:38:36;10.98;;;8.07;;
32152;SDS011;18656;50.580;11.392;2023-12-04T14:41:04;7.05;;;5.78;;
32152;SDS011;18656;50.580;11.392;2023-12-04T14:43:33;19.50;;;11.50;;